createdAt,value
2017-02-18T00:00:28.578Z,87.15
2017-02-18T00:01:33.716Z,87.05
2017-02-18T00:02:39.815Z,86.87
2017-02-18T00:03:44.919Z,87.05
2017-02-18T00:04:51.010Z,86.96
2017-02-18T00:05:55.141Z,87.15
2017-02-18T00:07:00.277Z,86.68
2017-02-18T00:08:06.371Z,86.39
2017-02-18T00:09:12.489Z,86.49
2017-02-18T00:10:17.618Z,86.49
2017-02-18T00:11:20.820Z,86.3
2017-02-18T00:12:24.953Z,86.2
2017-02-18T00:13:31.050Z,86.2
2017-02-18T00:14:37.146Z,86.39
2017-02-18T00:15:43.239Z,86.49
2017-02-18T00:16:47.403Z,86.34
2017-02-18T00:17:53.511Z,86.2
2017-02-18T00:18:59.606Z,86.53
2017-02-18T00:20:04.730Z,86.49
2017-02-18T00:21:08.894Z,86.39
2017-02-18T00:22:14.981Z,86.3
2017-02-18T00:23:21.080Z,86.11
2017-02-18T00:24:27.178Z,86.11
2017-02-18T00:25:33.286Z,86.01
2017-02-18T00:26:39.379Z,86.39
2017-02-18T00:27:45.469Z,86.68
2017-02-18T00:28:51.564Z,86.49
2017-02-18T00:29:57.674Z,86.49
2017-02-18T00:31:03.764Z,86.39
2017-02-18T00:32:09.861Z,86.3
2017-02-18T00:33:15.002Z,87.15
2017-02-18T00:34:21.081Z,86.77
2017-02-18T00:35:27.188Z,86.49
2017-02-18T00:36:33.286Z,86.49
2017-02-18T00:37:39.380Z,86.39
2017-02-18T00:38:42.568Z,87.05
2017-02-18T00:39:48.779Z,86.49
2017-02-18T00:40:53.909Z,87.34
2017-02-18T00:41:59.993Z,87.15
2017-02-18T00:43:04.160Z,87.24
2017-02-18T00:44:10.317Z,86.96
2017-02-18T00:45:13.522Z,86.87
2017-02-18T00:46:19.565Z,86.87
2017-02-18T00:47:24.687Z,87.15
2017-02-18T00:48:30.931Z,87.34
2017-02-18T00:49:35.212Z,87.34
2017-02-18T00:50:40.366Z,87.34
2017-02-18T00:51:46.446Z,87.34
2017-02-18T00:52:51.574Z,87.62
2017-02-18T00:53:57.726Z,87.34
2017-02-18T00:55:01.975Z,87.62
2017-02-18T00:56:08.201Z,87.34
2017-02-18T00:57:12.357Z,87.53
2017-02-18T00:58:18.486Z,87.34
2017-02-18T00:59:24.580Z,87.82
2017-02-18T01:00:28.738Z,87.62
2017-02-18T01:01:33.872Z,87.72
2017-02-18T01:02:38.995Z,87.72
2017-02-18T01:03:45.133Z,87.62
2017-02-18T01:04:51.195Z,87.53
2017-02-18T01:05:56.326Z,87.34
2017-02-18T01:07:01.491Z,87.24
2017-02-18T01:08:05.625Z,87.15
2017-02-18T01:09:11.723Z,87.82
2017-02-18T01:10:14.881Z,87.62
2017-02-18T01:11:20.034Z,87.72
2017-02-18T01:12:26.138Z,87.72
2017-02-18T01:13:32.238Z,87.53
2017-02-18T01:14:38.341Z,87.34
2017-02-18T01:15:44.444Z,87.43
2017-02-18T01:16:49.571Z,87.91
2017-02-18T01:17:55.670Z,87.91
2017-02-18T01:19:01.873Z,87.43
2017-02-18T01:20:07.962Z,87.57
2017-02-18T01:21:14.064Z,88.01
2017-02-18T01:22:19.191Z,87.34
2017-02-18T01:23:24.289Z,87.72
2017-02-18T01:24:29.421Z,87.72
2017-02-18T01:25:34.519Z,87.62
2017-02-18T01:26:39.713Z,87.82
2017-02-18T01:27:45.839Z,88.01
2017-02-18T01:28:50.964Z,87.82
2017-02-18T01:29:55.124Z,87.95
2017-02-18T01:30:58.298Z,87.91
2017-02-18T01:32:03.642Z,87.82
2017-02-18T01:33:09.732Z,87.95
2017-02-18T08:13:35.760Z,83.49
2017-02-18T08:14:41.983Z,82.92
2017-02-18T08:15:47.121Z,82.64
2017-02-18T08:16:51.257Z,82.64
2017-02-18T08:17:56.359Z,82.54
2017-02-18T08:19:02.465Z,82.64
2017-02-18T08:20:08.562Z,82.07
2017-02-18T08:21:14.670Z,82.49
2017-02-18T08:22:20.777Z,81.59
2017-02-18T08:23:25.929Z,81.25
2017-02-18T08:24:31.055Z,81.16
2017-02-18T08:25:36.192Z,80.68
2017-02-18T08:26:41.382Z,80.96
2017-02-18T08:27:47.601Z,80.77
2017-02-18T08:28:53.704Z,80.3
2017-02-18T08:29:58.815Z,80.11
2017-02-18T08:31:04.923Z,80.02
2017-02-18T08:32:11.028Z,79.25
2017-02-18T08:33:17.118Z,79.2
2017-02-18T08:34:21.276Z,79.01
2017-02-18T08:35:26.367Z,78.63
2017-02-18T08:36:32.460Z,78.16
2017-02-18T08:37:38.574Z,78.34
2017-02-18T08:38:43.732Z,78.44
2017-02-18T08:39:49.827Z,77.68
2017-02-18T08:40:54.955Z,77.39
2017-02-18T08:42:01.047Z,77.01
2017-02-18T08:43:06.189Z,77.2
2017-02-18T08:44:11.332Z,76.39
2017-02-18T08:45:17.429Z,76.39
2017-02-18T08:46:22.563Z,76.2
2017-02-18T08:47:27.726Z,76.92
2017-02-18T08:48:30.868Z,76.76
2017-02-18T08:49:36.018Z,77.43
2017-02-18T08:50:42.099Z,77.24
2017-02-18T08:51:46.404Z,76.57
2017-02-18T08:52:51.529Z,76.57
2017-02-18T08:53:57.629Z,76.67
2017-02-18T08:55:01.780Z,76.67
2017-02-18T08:56:04.967Z,77.43
2017-02-18T08:57:10.126Z,76.67
2017-02-18T08:58:15.197Z,75.91
2017-02-18T08:59:21.294Z,76.1
2017-02-18T09:00:27.394Z,75.15
2017-02-18T09:01:32.531Z,74.87
2017-02-18T09:02:37.626Z,75.53
2017-02-18T09:03:42.740Z,75.19
2017-02-18T09:04:48.843Z,74.52
2017-02-18T09:05:53.954Z,73.85
2017-02-18T09:07:00.046Z,73.47
2017-02-18T09:08:05.168Z,72.75
2017-02-18T09:09:10.325Z,71.98
2017-02-18T09:10:16.420Z,71.03
2017-02-18T09:11:20.568Z,71.61
2017-02-18T09:12:24.733Z,71.42
2017-02-18T09:13:30.833Z,71.26
2017-02-18T09:14:36.953Z,70.12
2017-02-18T09:15:43.045Z,70.25
2017-02-18T09:16:49.154Z,69.48
2017-02-18T09:17:53.284Z,67.68
2017-02-18T09:18:59.458Z,66.18
2017-02-18T09:20:04.490Z,65.99
2017-02-18T09:21:09.622Z,65.33
2017-02-18T09:22:15.717Z,64.47
2017-02-18T09:23:20.045Z,63.89
2017-02-18T09:24:25.069Z,63.6
2017-02-18T09:25:30.199Z,64.09
2017-02-18T09:26:35.445Z,63.99
2017-02-18T09:27:40.581Z,65.1
2017-02-18T09:28:44.733Z,66.21
2017-02-18T09:29:50.852Z,67.74
2017-02-18T09:30:56.984Z,68.12
2017-02-18T09:32:03.070Z,68.05
2017-02-18T09:33:09.178Z,66.34
2017-02-18T09:34:14.315Z,66.15
2017-02-18T09:35:17.529Z,65.7
2017-02-18T09:36:22.805Z,65.04
2017-02-18T09:37:26.972Z,64.65
2017-02-18T09:38:33.076Z,63.6
2017-02-18T09:39:39.185Z,63.42
2017-02-18T09:40:45.304Z,64.28
2017-02-18T09:41:50.382Z,63.99
2017-02-18T09:42:54.559Z,63.32
2017-02-18T09:44:00.677Z,64.47
2017-02-18T09:45:04.858Z,63.6
2017-02-18T09:46:09.025Z,63.45
2017-02-18T09:48:19.249Z,61.76
2017-02-18T09:49:25.387Z,60.61
2017-02-18T09:50:29.543Z,59.66
2017-02-18T09:51:34.742Z,60.04
2017-02-18T09:53:45.039Z,57.68
2017-02-18T09:54:50.172Z,58.45
2017-02-18T09:55:56.298Z,58.07
2017-02-18T09:57:00.435Z,57.31
2017-02-18T09:58:06.547Z,57.68
2017-02-18T09:59:11.717Z,57.59
2017-02-18T10:00:16.939Z,56.28
2017-02-18T10:01:23.054Z,56.09
2017-02-18T10:02:26.255Z,55.71
2017-02-18T10:03:31.416Z,56.06
2017-02-18T10:04:37.528Z,55.9
2017-02-18T10:05:42.786Z,56.38
2017-02-18T10:06:48.888Z,55.96
2017-02-18T10:07:54.029Z,57.11
2017-02-18T10:09:00.151Z,56.06
2017-02-18T10:10:05.294Z,55.68
2017-02-18T10:11:10.444Z,55.52
2017-02-18T10:12:16.552Z,56.16
2017-02-18T10:13:21.705Z,56.82
2017-02-18T10:14:27.822Z,57.4
2017-02-18T10:15:34.041Z,57.53
2017-02-18T10:16:39.159Z,56.25
2017-02-18T10:17:45.263Z,56.76
2017-02-18T10:18:51.379Z,56.28
2017-02-18T10:19:57.494Z,55.61
2017-02-18T10:21:03.609Z,54.94
2017-02-18T10:22:08.715Z,55.23
2017-02-18T10:23:13.864Z,54.94
2017-02-18T10:24:19.961Z,54.75
2017-02-18T10:25:25.064Z,55.52
2017-02-18T10:26:31.170Z,55.32
2017-02-18T10:27:36.310Z,55.13
2017-02-18T10:28:42.420Z,55.61
2017-02-18T10:29:46.626Z,55.32
2017-02-18T10:30:51.757Z,55.61
2017-02-18T10:31:57.853Z,54.27
2017-02-18T10:33:03.974Z,55.11
2017-02-18T10:34:10.089Z,55.68
2017-02-18T10:35:13.301Z,56.09
2017-02-18T10:36:19.435Z,55.61
2017-02-18T10:37:25.504Z,56.09
2017-02-18T10:38:30.637Z,55.13
2017-02-18T10:39:36.746Z,55.23
2017-02-18T10:40:41.887Z,54.37
2017-02-18T10:41:47.999Z,54.47
2017-02-18T10:42:53.134Z,53.7
2017-02-18T10:43:59.251Z,53.82
2017-02-18T10:45:05.353Z,53.53
2017-02-18T10:46:11.461Z,53.7
2017-02-18T10:47:17.581Z,53.63
2017-02-18T10:48:21.812Z,52.96
2017-02-18T10:49:25.977Z,51.39
2017-02-18T10:50:31.111Z,50.36
2017-02-18T10:51:37.235Z,48.44
2017-02-18T10:52:42.379Z,46.17
2017-02-18T10:53:46.525Z,46.19
2017-02-18T10:54:52.622Z,45.16
2017-02-18T10:55:56.797Z,44.51
2017-02-18T10:56:59.975Z,42.21
2017-02-18T10:58:04.192Z,41.73
2017-02-18T10:59:09.325Z,41.44
2017-02-18T11:00:15.451Z,41.8
2017-02-18T11:01:21.562Z,42.19
2017-02-18T11:02:26.696Z,42.47
2017-02-18T11:03:30.871Z,42.29
2017-02-18T11:04:35.987Z,43.34
2017-02-18T11:05:42.093Z,43.51
2017-02-18T11:06:48.197Z,43.99
2017-02-18T11:07:54.360Z,44.18
2017-02-18T11:08:59.577Z,44.26
2017-02-18T11:10:05.631Z,44.64
2017-02-18T11:11:10.744Z,44.64
2017-02-18T11:12:15.893Z,45.48
2017-02-18T11:13:22.113Z,46.82
2017-02-18T11:14:27.255Z,46.15
2017-02-18T11:15:32.407Z,47.3
2017-02-18T11:16:37.552Z,47.56
2017-02-18T11:17:43.673Z,47.75
2017-02-18T11:18:49.925Z,48.49
2017-02-18T11:19:54.952Z,48.85
2017-02-18T11:20:59.131Z,48.38
2017-02-18T11:22:04.243Z,48.75
2017-02-18T11:23:10.427Z,49.88
2017-02-18T11:24:14.567Z,51.95
2017-02-18T11:25:19.677Z,52.05
2017-02-18T11:26:23.818Z,53.58
2017-02-18T11:27:29.980Z,53.74
2017-02-18T11:28:36.094Z,54.22
2017-02-18T11:29:42.207Z,54.32
2017-02-18T11:30:48.340Z,54.41
2017-02-18T11:31:53.450Z,55.75
2017-02-18T11:32:58.665Z,55.65
2017-02-18T11:34:04.764Z,55.84
2017-02-18T11:35:08.926Z,54.5
2017-02-18T11:36:14.078Z,53.65
2017-02-18T11:37:19.207Z,54.13
2017-02-18T11:38:25.308Z,54.22
2017-02-18T11:39:30.480Z,52.88
2017-02-18T11:40:36.602Z,52.03
2017-02-18T11:41:41.744Z,51.64
2017-02-18T11:42:46.849Z,51.45
2017-02-18T11:43:52.970Z,51.45
2017-02-18T11:44:59.068Z,51.38
2017-02-18T11:46:05.176Z,50.59
2017-02-18T11:47:11.279Z,51.35
2017-02-18T11:48:17.373Z,52.5
2017-02-18T11:49:21.521Z,52.03
2017-02-18T11:50:25.674Z,51.54
2017-02-18T11:51:30.824Z,50.98
2017-02-18T11:52:36.936Z,50.02
2017-02-18T11:53:43.020Z,49.95
2017-02-18T11:54:49.135Z,49.26
2017-02-18T11:55:54.425Z,49.83
2017-02-18T11:56:58.616Z,49.26
2017-02-18T11:58:04.728Z,48.78
2017-02-18T11:59:10.833Z,49.35
2017-02-18T12:00:16.951Z,49.93
2017-02-18T12:01:21.130Z,51.07
2017-02-18T12:02:27.222Z,50.76
2017-02-18T12:03:33.430Z,49.99
2017-02-18T12:04:39.598Z,49.8
2017-02-18T12:05:45.706Z,50.76
2017-02-18T12:06:51.825Z,50.67
2017-02-18T12:07:56.976Z,50.57
2017-02-18T12:09:02.106Z,50.85
2017-02-18T12:10:08.218Z,51.4
2017-02-18T12:11:13.454Z,51.31
2017-02-18T12:12:19.567Z,51.97
2017-02-18T12:13:24.683Z,52.36
2017-02-18T12:14:30.810Z,52.55
2017-02-18T12:15:36.895Z,52.23
2017-02-18T12:16:41.048Z,52.33
2017-02-18T12:17:45.191Z,53.47
2017-02-18T12:18:51.293Z,53.56
2017-02-18T12:19:57.401Z,53.66
2017-02-18T12:21:03.544Z,54.33
2017-02-18T12:22:08.641Z,54.61
2017-02-18T12:23:11.813Z,55.76
2017-02-18T12:24:17.906Z,55.19
2017-02-18T12:25:23.038Z,55.19
2017-02-18T12:26:28.175Z,54.33
2017-02-18T12:27:32.423Z,54.52
2017-02-18T12:28:38.534Z,54.33
2017-02-18T12:29:42.694Z,53.38
2017-02-18T12:30:47.831Z,53.76
2017-02-18T12:31:52.002Z,53.5
2017-02-18T12:32:57.142Z,53.31
2017-02-18T12:34:00.345Z,53.12
2017-02-18T12:35:06.440Z,53.5
2017-02-18T12:36:11.566Z,52.83
2017-02-18T12:37:16.698Z,53.12
2017-02-18T12:38:20.864Z,52.76
2017-02-18T12:39:26.963Z,52.38
2017-02-18T12:40:32.086Z,51.33
2017-02-18T12:41:36.254Z,51.26
2017-02-18T12:42:40.439Z,50.78
2017-02-18T12:43:45.587Z,50.12
2017-02-18T12:44:49.777Z,49.93
2017-02-18T12:45:52.997Z,50.02
2017-02-18T12:46:58.176Z,49.54
2017-02-18T12:48:04.278Z,49.73
2017-02-18T12:49:06.635Z,50.18
2017-02-18T12:50:10.802Z,50.18
2017-02-18T12:51:15.935Z,50.38
2017-02-18T12:52:21.076Z,50.92
2017-02-18T12:53:27.189Z,51.12
2017-02-18T12:54:32.325Z,52.16
2017-02-18T12:55:38.439Z,51.78
2017-02-18T12:56:43.668Z,51.78
2017-02-18T12:57:49.846Z,51.62
2017-02-18T12:58:55.929Z,51.04
2017-02-18T13:00:01.061Z,51.23
2017-02-18T13:01:05.204Z,50.57
2017-02-18T13:02:10.317Z,51.23
2017-02-18T13:03:15.468Z,52
2017-02-18T13:04:20.598Z,51.43
2017-02-18T13:05:26.701Z,51.52
2017-02-18T13:06:31.823Z,51.4
2017-02-18T13:07:37.939Z,51.4
2017-02-18T13:08:42.130Z,51.4
2017-02-18T13:09:47.239Z,51.78
2017-02-18T13:10:51.380Z,51.78
2017-02-18T13:11:57.495Z,52.16
2017-02-18T13:13:03.628Z,52.36
2017-02-18T13:14:09.705Z,52.36
2017-02-18T13:15:14.805Z,53.59
2017-02-18T13:16:20.992Z,53.59
2017-02-18T13:17:25.151Z,53.12
2017-02-18T13:18:30.290Z,52.92
2017-02-18T13:19:35.439Z,53.12
2017-02-18T13:20:40.575Z,52.8
2017-02-18T13:21:45.713Z,52.8
2017-02-18T13:22:50.811Z,52.92
2017-02-18T13:23:56.983Z,53.69
2017-02-18T13:25:02.086Z,52.83
2017-02-18T13:26:08.186Z,52.73
2017-02-18T13:27:12.374Z,52.55
2017-02-18T13:28:18.431Z,52.92
2017-02-18T13:29:22.569Z,52.55
2017-02-18T13:30:27.696Z,52.36
2017-02-18T13:31:33.792Z,52.36
2017-02-18T13:32:38.932Z,52.26
2017-02-18T13:33:45.048Z,51.97
2017-02-18T13:34:51.163Z,52.16
2017-02-18T13:35:56.275Z,51.78
2017-02-18T13:37:01.401Z,51.68
2017-02-18T13:38:05.563Z,52.07
2017-02-18T13:39:11.875Z,52.36
2017-02-18T13:40:16.057Z,52.45
2017-02-18T13:41:20.251Z,52.64
2017-02-18T13:42:26.344Z,51.97
2017-02-18T13:43:30.462Z,52.45
2017-02-18T13:44:35.590Z,52.45
2017-02-18T13:46:45.852Z,52.83
2017-02-18T13:47:50.000Z,52.83
2017-02-18T13:48:56.105Z,52.73
2017-02-18T13:50:02.228Z,52.73
2017-02-18T13:51:07.353Z,52.92
2017-02-18T13:52:13.479Z,52.83
2017-02-18T13:53:17.685Z,53.02
2017-02-18T13:54:23.755Z,53.12
2017-02-18T13:55:26.952Z,52.55
2017-02-18T13:56:33.062Z,52.16
2017-02-18T13:57:38.194Z,52.19
2017-02-18T13:58:43.333Z,51.9
2017-02-18T13:59:48.461Z,52
2017-02-18T14:00:54.556Z,52.64
2017-02-18T14:02:00.647Z,52.45
2017-02-18T14:03:05.797Z,52.73
2017-02-18T14:04:10.932Z,52.55
2017-02-18T14:05:17.039Z,52.45
2017-02-18T14:06:22.236Z,53.59
2017-02-18T14:07:27.381Z,53.59
2017-02-18T14:08:30.635Z,53.31
2017-02-18T14:09:36.730Z,54.14
2017-02-18T14:10:42.838Z,53.69
2017-02-18T14:11:48.930Z,53.69
2017-02-18T14:12:55.019Z,54.24
2017-02-18T14:14:01.119Z,54.04
2017-02-18T14:15:07.222Z,54.33
2017-02-18T14:16:13.334Z,54.43
2017-02-18T14:17:18.468Z,53.47
2017-02-18T14:18:22.627Z,53.38
2017-02-18T14:19:26.804Z,54.33
2017-02-18T14:20:31.934Z,54.33
2017-02-18T14:21:36.999Z,54.43
2017-02-18T14:22:43.122Z,54.52
2017-02-18T14:23:48.262Z,54.33
2017-02-18T14:24:53.423Z,54.52
2017-02-18T14:25:58.576Z,54.52
2017-02-18T14:27:02.808Z,54.43
2017-02-18T14:28:07.913Z,54.33
2017-02-18T14:29:13.062Z,55
2017-02-18T14:30:19.157Z,55.28
2017-02-18T14:31:24.321Z,55.09
2017-02-18T14:32:30.425Z,55.09
2017-02-18T14:33:36.522Z,55
2017-02-18T14:34:41.636Z,54.8
2017-02-18T14:35:46.771Z,55.19
2017-02-18T14:36:52.870Z,54.8
2017-02-18T14:37:58.009Z,54.9
2017-02-18T14:39:03.168Z,54.71
2017-02-18T14:40:07.349Z,54.14
2017-02-18T14:41:12.584Z,54.04
2017-02-18T14:42:18.695Z,54.04
2017-02-18T14:43:23.800Z,54.14
2017-02-18T14:44:29.905Z,54.14
2017-02-18T14:45:35.071Z,54.61
2017-02-18T14:46:40.157Z,54.24
2017-02-18T14:47:45.289Z,55.09
2017-02-18T14:48:51.400Z,54.61
2017-02-18T14:49:54.599Z,55.38
2017-02-18T14:51:00.699Z,55.09
2017-02-18T14:52:05.849Z,54.8
2017-02-18T14:53:11.949Z,55.19
2017-02-18T14:54:15.137Z,55.28
2017-02-18T14:55:21.246Z,54.52
2017-02-18T14:56:27.333Z,54.71
2017-02-18T14:57:32.458Z,54.8
2017-02-18T14:58:38.566Z,54.9
2017-02-18T14:59:42.730Z,55.76
2017-02-18T15:00:48.826Z,55.28
2017-02-18T15:01:54.987Z,55.09
2017-02-18T15:02:59.124Z,55.09
2017-02-18T15:04:03.273Z,54.9
2017-02-18T15:05:09.379Z,55.47
2017-02-18T15:06:15.539Z,54.9
2017-02-18T15:07:21.643Z,55
2017-02-18T15:08:25.802Z,55
2017-02-18T15:09:30.945Z,55.47
2017-02-18T15:10:36.054Z,54.8
2017-02-18T15:11:40.202Z,54.9
2017-02-18T15:12:45.358Z,55
2017-02-18T15:13:51.437Z,55.09
2017-02-18T15:14:57.549Z,55.38
2017-02-18T15:16:02.669Z,55.47
2017-02-18T15:17:05.824Z,56.04
2017-02-18T15:18:11.932Z,55.73
2017-02-18T15:19:16.105Z,56.4
2017-02-18T15:20:20.270Z,56.78
2017-02-18T15:21:26.368Z,56.78
2017-02-18T15:22:32.474Z,56.97
2017-02-18T15:23:36.640Z,56.87
2017-02-18T15:24:42.753Z,56.02
2017-02-18T15:25:47.889Z,55.83
2017-02-18T15:26:52.996Z,56.02
2017-02-18T15:27:59.113Z,56.02
2017-02-18T15:29:04.257Z,56.02
2017-02-18T15:30:09.386Z,56.68
2017-02-18T15:31:15.488Z,56.97
2017-02-18T15:32:20.627Z,56.97
2017-02-18T15:33:25.776Z,56.78
2017-02-18T15:34:31.893Z,56.87
2017-02-18T15:35:37.116Z,56.87
2017-02-18T15:36:41.303Z,56.97
2017-02-18T15:37:46.436Z,56.68
2017-02-18T15:38:51.578Z,56.21
2017-02-18T15:39:56.724Z,56.97
2017-02-18T15:41:02.820Z,55.92
2017-02-18T15:42:08.933Z,56.4
2017-02-18T15:43:15.053Z,56.85
2017-02-18T15:44:21.170Z,56.85
2017-02-18T15:45:24.426Z,56.75
2017-02-18T15:46:29.487Z,56.56
2017-02-18T15:47:34.693Z,56.85
2017-02-18T15:48:40.786Z,57.32
2017-02-18T15:49:45.921Z,56.85
2017-02-18T15:50:51.031Z,57.45
2017-02-18T15:51:56.159Z,57.45
2017-02-18T15:53:02.255Z,56.85
2017-02-18T15:54:06.406Z,56.56
2017-02-18T15:55:11.537Z,56.75
2017-02-18T15:56:16.645Z,56.68
2017-02-18T15:57:20.804Z,56.65
2017-02-18T15:58:25.946Z,56.75
2017-02-18T15:59:32.048Z,56.85
2017-02-18T16:00:37.142Z,57.23
2017-02-18T16:01:43.252Z,57.32
2017-02-18T16:02:48.377Z,57.42
2017-02-18T16:03:53.546Z,57.13
2017-02-18T16:04:58.620Z,57.51
2017-02-18T16:06:03.770Z,57.7
2017-02-18T16:07:09.866Z,57.99
2017-02-18T16:08:15.962Z,57.7
2017-02-18T16:09:21.133Z,57.51
2017-02-18T16:10:27.230Z,58.65
2017-02-18T16:11:33.380Z,59.03
2017-02-18T16:12:38.539Z,58.75
2017-02-18T16:13:43.674Z,58.56
2017-02-18T16:14:49.760Z,59.13
2017-02-18T16:15:54.916Z,58.56
2017-02-18T16:17:01.066Z,58.47
2017-02-18T16:18:06.215Z,57.96
2017-02-18T16:19:12.317Z,58.06
2017-02-18T16:20:18.412Z,58.34
2017-02-18T16:21:24.514Z,58.81
2017-02-18T16:22:30.622Z,58.72
2017-02-18T16:23:35.751Z,58.91
2017-02-18T16:24:41.852Z,58.84
2017-02-18T16:25:46.957Z,58.91
2017-02-18T16:26:53.065Z,59.32
2017-02-18T16:27:59.165Z,59.2
2017-02-18T16:29:03.316Z,59.39
2017-02-18T16:30:07.612Z,59.39
2017-02-18T16:31:13.735Z,59.42
2017-02-18T16:32:17.917Z,59.39
2017-02-18T16:33:24.002Z,58.62
2017-02-18T16:34:30.115Z,58.91
2017-02-18T16:35:36.212Z,59.2
2017-02-18T16:36:41.365Z,59.86
2017-02-18T16:37:47.471Z,59.77
2017-02-18T16:38:53.567Z,59.96
2017-02-18T16:39:56.755Z,59.67
2017-02-18T16:41:02.848Z,60.15
2017-02-18T16:42:07.012Z,60.53
2017-02-18T16:43:13.203Z,60.63
2017-02-18T16:44:18.344Z,60.91
2017-02-18T16:45:24.454Z,61
2017-02-18T16:46:28.587Z,61
2017-02-18T16:47:34.678Z,61.1
2017-02-18T16:48:39.923Z,60.34
2017-02-18T16:49:43.287Z,60.15
2017-02-18T16:50:48.435Z,61
2017-02-18T16:51:53.561Z,60.63
2017-02-18T16:52:58.682Z,60.63
2017-02-18T16:54:03.839Z,60.12
2017-02-18T16:55:09.063Z,60.31
2017-02-18T16:56:14.208Z,61.16
2017-02-18T16:57:19.351Z,60.97
2017-02-18T16:58:25.545Z,60.6
2017-02-18T16:59:30.658Z,60.5
2017-02-18T17:00:36.751Z,60.6
2017-02-18T17:01:40.060Z,60.97
2017-02-18T17:02:42.292Z,61.07
2017-02-18T17:03:46.441Z,60.88
2017-02-18T17:04:52.548Z,61.26
2017-02-18T17:05:57.689Z,61.45
2017-02-18T17:07:03.794Z,61.45
2017-02-18T17:08:07.933Z,60.97
2017-02-18T17:09:12.100Z,60.97
2017-02-18T17:10:18.209Z,60.75
2017-02-18T17:11:24.307Z,61.26
2017-02-18T17:12:30.410Z,61.45
2017-02-18T17:13:35.561Z,61.45
2017-02-18T17:14:41.656Z,62.02
2017-02-18T17:15:44.858Z,62.37
2017-02-18T17:16:49.985Z,62.46
2017-02-18T17:17:56.080Z,62.59
2017-02-18T17:19:01.190Z,62.94
2017-02-18T17:20:07.285Z,63.04
2017-02-18T17:21:13.393Z,63.23
2017-02-18T17:22:19.511Z,62.94
2017-02-18T17:23:23.692Z,63.42
2017-02-18T17:24:27.953Z,63.6
2017-02-18T17:25:34.003Z,64.08
2017-02-18T17:26:40.099Z,64.18
2017-02-18T17:27:44.228Z,64.08
2017-02-18T17:28:49.361Z,64.46
2017-02-18T17:29:54.495Z,64.84
2017-02-18T17:30:59.637Z,65.22
2017-02-18T17:32:05.736Z,64.94
2017-02-18T17:33:11.833Z,64.65
2017-02-18T17:34:17.943Z,65.13
2017-02-18T17:35:24.065Z,65.32
2017-02-18T17:36:29.211Z,65.89
2017-02-18T17:37:35.317Z,65.89
2017-02-18T17:38:41.425Z,65.6
2017-02-18T17:39:45.565Z,66.08
2017-02-18T17:40:51.678Z,66.27
2017-02-18T17:41:57.793Z,66.46
2017-02-18T17:43:02.955Z,66.27
2017-02-18T17:44:08.101Z,66.08
2017-02-18T17:45:13.240Z,66.36
2017-02-18T17:46:19.399Z,66.65
2017-02-18T17:47:24.551Z,66.74
2017-02-18T17:48:30.645Z,66.65
2017-02-18T17:49:36.745Z,66.55
2017-02-18T17:50:42.841Z,66.94
2017-02-18T17:51:48.021Z,67.03
2017-02-18T17:52:54.117Z,67.19
2017-02-18T17:53:59.275Z,67.38
2017-02-18T17:55:05.369Z,67.28
2017-02-18T17:56:10.524Z,67.47
2017-02-18T17:57:16.648Z,67.38
2017-02-18T17:58:21.789Z,67.57
2017-02-18T17:59:26.930Z,67.66
2017-02-18T18:00:31.106Z,67.76
2017-02-18T18:01:36.258Z,68.13
2017-02-18T18:02:41.387Z,67.94
2017-02-18T18:03:46.527Z,68.23
2017-02-18T18:04:49.692Z,68.23
2017-02-18T18:05:55.795Z,68.42
2017-02-18T18:06:59.992Z,68.42
2017-02-18T18:08:06.070Z,68.13
2017-02-18T18:09:10.232Z,68.61
2017-02-18T18:10:16.325Z,68.61
2017-02-18T18:11:21.478Z,68.8
2017-02-18T18:12:25.618Z,69.37
2017-02-18T18:13:31.717Z,68.8
2017-02-18T18:14:37.817Z,69.09
2017-02-18T18:15:43.914Z,69.18
2017-02-18T18:16:49.016Z,69.85
2017-02-18T18:17:54.146Z,69.66
2017-02-18T18:18:59.278Z,70.29
2017-02-18T18:20:04.417Z,69.91
2017-02-18T18:21:10.522Z,70.48
2017-02-18T18:22:15.646Z,70.29
2017-02-18T18:23:21.769Z,71.33
2017-02-18T18:24:27.870Z,71.23
2017-02-18T18:25:33.964Z,72
2017-02-18T18:26:39.076Z,71.62
2017-02-18T18:27:45.184Z,71.9
2017-02-18T18:28:51.303Z,72
2017-02-18T18:29:57.386Z,71.9
2017-02-18T18:31:03.483Z,71.67
2017-02-18T18:32:08.609Z,72.44
2017-02-18T18:33:13.740Z,72.15
2017-02-18T18:34:18.878Z,72.53
2017-02-18T18:35:25.026Z,72.72
2017-02-18T18:36:30.120Z,73.1
2017-02-18T18:37:35.246Z,73.48
2017-02-18T18:38:40.398Z,73.29
2017-02-18T18:39:43.584Z,73.86
2017-02-18T18:40:49.717Z,73.96
2017-02-18T18:41:55.815Z,73.76
2017-02-18T18:43:01.924Z,74.52
2017-02-18T18:44:07.058Z,74.24
2017-02-18T18:45:13.164Z,74.52
2017-02-18T18:46:18.297Z,74.43
2017-02-18T18:47:23.430Z,74.81
2017-02-18T18:48:29.542Z,75
2017-02-18T18:49:35.653Z,75.09
2017-02-18T18:50:40.787Z,74.71
2017-02-18T18:51:46.885Z,75.28
2017-02-18T18:52:52.026Z,75
2017-02-18T18:53:58.116Z,75.43
2017-02-18T18:55:03.238Z,75.24
2017-02-18T18:56:08.373Z,75.72
2017-02-18T18:57:13.490Z,75.91
2017-02-18T18:58:19.599Z,76.2
2017-02-18T18:59:25.694Z,76.1
2017-02-18T19:00:31.781Z,76.01
2017-02-18T19:01:37.886Z,76.39
2017-02-18T19:02:43.978Z,76.57
2017-02-18T19:03:48.107Z,76.57
2017-02-18T19:04:54.208Z,76.48
2017-02-18T19:06:00.300Z,76.39
2017-02-18T19:07:06.428Z,76.48
2017-02-18T19:08:12.520Z,76.29
2017-02-18T19:09:17.657Z,77.05
2017-02-18T19:10:22.807Z,76.95
2017-02-18T19:11:28.886Z,77.24
2017-02-18T19:12:35.039Z,77.24
2017-02-18T19:13:40.194Z,77.14
2017-02-18T19:14:45.275Z,77.71
2017-02-18T19:15:50.437Z,77.43
2017-02-18T19:16:55.560Z,77.62
2017-02-18T19:18:01.662Z,78
2017-02-18T19:19:06.793Z,78
2017-02-18T19:20:12.901Z,77.81
2017-02-18T19:21:18.992Z,77.52
2017-02-18T19:22:25.108Z,77.43
2017-02-18T19:23:31.207Z,77.9
2017-02-18T19:24:37.298Z,77.62
2017-02-18T19:25:42.485Z,77.71
2017-02-18T19:26:48.611Z,77.62
2017-02-18T19:27:54.701Z,77.62
2017-02-18T19:29:00.799Z,77.58
2017-02-18T19:30:05.952Z,78.43
2017-02-18T19:31:10.107Z,78.19
2017-02-18T19:32:13.398Z,77.96
2017-02-18T19:33:19.490Z,78.62
2017-02-18T19:34:24.703Z,78.34
2017-02-18T19:35:30.820Z,78.72
2017-02-18T19:36:35.946Z,78.81
2017-02-18T19:37:42.065Z,79.04
2017-02-18T19:38:47.204Z,79
2017-02-18T19:39:53.348Z,78.72
2017-02-18T19:40:58.566Z,78.47
2017-02-18T19:42:02.755Z,78.56
2017-02-18T19:43:07.859Z,78.19
2017-02-18T19:44:13.009Z,78.47
2017-02-18T19:45:18.141Z,77.81
2017-02-18T19:46:23.271Z,77.9
2017-02-18T19:47:28.374Z,77.9
2017-02-18T19:48:34.508Z,77.05
2017-02-18T19:49:40.604Z,76.86
2017-02-18T19:50:45.729Z,77.05
2017-02-18T19:51:51.823Z,76.95
2017-02-18T19:52:56.962Z,76.95
2017-02-18T19:54:03.066Z,76.48
2017-02-18T19:55:07.229Z,76.67
2017-02-18T19:56:13.330Z,76.29
2017-02-18T19:57:19.427Z,76.2
2017-02-18T19:58:22.587Z,76.67
2017-02-18T19:59:27.712Z,76.48
2017-02-18T20:00:33.806Z,76.48
2017-02-18T20:01:39.923Z,76.48
2017-02-18T20:02:46.022Z,76.57
2017-02-18T20:03:51.161Z,76.48
2017-02-18T20:04:55.308Z,76.2
2017-02-18T20:06:01.416Z,75.91
2017-02-18T20:07:06.527Z,76.48
2017-02-18T20:08:12.613Z,76.48
2017-02-18T20:09:18.838Z,76.48
2017-02-18T20:10:24.278Z,76.95
2017-02-18T20:11:29.405Z,77.05
2017-02-18T20:12:34.555Z,77.81
2017-02-18T20:13:38.729Z,77.14
2017-02-18T20:14:44.818Z,77.14
2017-02-18T20:15:49.959Z,77.24
2017-02-18T20:16:53.154Z,77.14
2017-02-18T20:17:58.391Z,77.62
2017-02-18T20:19:04.494Z,77.67
2017-02-18T20:20:09.632Z,77.86
2017-02-18T20:21:14.730Z,77.86
2017-02-18T20:22:20.844Z,78.05
2017-02-18T20:23:26.931Z,78.24
2017-02-18T20:24:33.046Z,78.53
2017-02-18T20:25:39.160Z,78.53
2017-02-18T20:26:45.232Z,78.81
2017-02-18T20:27:50.358Z,78.72
2017-02-18T20:28:56.478Z,79.19
2017-02-18T20:30:02.580Z,79
2017-02-18T20:31:07.693Z,79.38
2017-02-18T20:32:11.846Z,79.19
2017-02-18T20:33:15.022Z,79.19
2017-02-18T20:34:21.118Z,78.81
2017-02-18T20:35:26.241Z,79.57
2017-02-18T20:36:31.371Z,79.47
2017-02-18T20:37:37.479Z,79.57
2017-02-18T20:38:42.609Z,79.95
2017-02-18T20:39:47.739Z,80.24
2017-02-18T20:40:53.842Z,79.63
2017-02-18T20:41:58.964Z,79.76
2017-02-18T20:43:04.127Z,79.82
2017-02-18T20:44:10.224Z,80.19
2017-02-18T20:45:15.351Z,80.29
2017-02-18T20:46:20.570Z,80.38
2017-02-18T20:47:25.747Z,79.91
2017-02-18T20:48:30.886Z,80.48